Time;durP1;ratioP1;P1;durP2;ratioP2;P2;SDS_P1;SDS_P2;PMS_P1;PMS_P2;Temp;Humidity;BMP_temperature;BMP_pressure;BME280_temperature;BME280_humidity;BME280_pressure;Samples;Min_cycle;Max_cycle;Signal;HPM_P1;HPM_P2
2022/07/02 01:01:40;;;;;;;;;;;;;;;23.03;41.35;102122.94;5232260;23;19924;-85
2022/07/02 05:06:55;;;;;;;;;;;;;;;23.23;40.88;102144.53;4905480;29;19966;-79
2022/07/02 05:09:23;;;;;;;;;;;;;;;23.23;41.24;102154.19;4898606;29;19922;-80
2022/07/02 05:12:07;;;;;;;;;;;;;;;23.27;40.98;102150.63;4886030;29;19912;-82
2022/07/02 05:14:59;;;;;;;;;;;;;;;23.30;41.08;102155.84;4889113;29;19928;-82
2022/07/02 05:20:52;;;;;;;;;;;;;;;23.36;41.02;102155.75;4813095;29;19988;-82
2022/07/02 05:36:11;;;;;;;;;;;;;;;23.15;41.09;102156.91;4811882;29;19974;-81
2022/07/02 05:38:40;;;;;;;;;;;;;;;22.96;41.24;102158.84;4811832;30;19920;-82
2022/07/02 05:41:45;;;;;;;;;;;;;;;22.90;41.59;102157.16;4804435;29;19957;-80
2022/07/02 05:44:31;;;;;;;;;;;;;;;22.91;41.62;102158.03;4840291;29;19942;-84
2022/07/02 05:47:19;;;;;;;;;;;;;;;22.96;41.63;102158.84;4847736;29;19969;-85
2022/07/02 05:49:49;;;;;;;;;;;;;;;22.89;41.79;102160.66;4846907;29;19940;-85
2022/07/02 06:03:18;;;;;;;;;;;;;;;22.97;42.55;102173.69;5355789;23;19923;-81
2022/07/02 06:08:29;;;;;;;;;;;;;;;23.10;42.61;102169.22;4900563;29;20005;-79
2022/07/02 06:10:55;;;;;;;;;;;;;;;23.13;42.66;102174.44;4869875;29;19900;-80
2022/07/02 06:13:29;;;;;;;;;;;;;;;23.12;42.72;102176.19;4881309;29;20010;-80
2022/07/02 06:15:54;;;;;;;;;;;;;;;23.14;42.94;102170.91;4875311;29;19924;-79
2022/07/02 06:18:20;;;;;;;;;;;;;;;23.16;42.94;102166.53;4878385;29;19927;-80
2022/07/02 06:20:45;;;;;;;;;;;;;;;23.17;42.74;102179.63;4878049;29;19915;-80
2022/07/02 06:23:16;;;;;;;;;;;;;;;23.16;43.04;102182.28;4893490;29;19919;-80
2022/07/02 06:25:41;;;;;;;;;;;;;;;23.22;43.56;102173.47;4893229;29;19959;-79
2022/07/02 06:28:07;;;;;;;;;;;;;;;23.25;43.19;102170.78;4875951;29;19982;-80
2022/07/02 06:30:33;;;;;;;;;;;;;;;23.27;43.17;102176.91;4896248;29;19911;-80
2022/07/02 06:33:00;;;;;;;;;;;;;;;23.26;43.27;102183.91;4876535;29;20009;-80
2022/07/02 06:35:29;;;;;;;;;;;;;;;23.27;43.20;102180.38;4880137;29;19936;-81
2022/07/02 06:37:59;;;;;;;;;;;;;;;23.27;43.32;102184.78;4853853;29;20271;-82
2022/07/02 06:40:40;;;;;;;;;;;;;;;23.28;43.25;102187.38;4896127;29;19911;-82
2022/07/02 06:43:05;;;;;;;;;;;;;;;23.34;42.86;102189.06;4900572;29;20010;-81
2022/07/02 06:45:31;;;;;;;;;;;;;;;23.37;42.91;102194.28;4901718;29;19927;-83
2022/07/02 06:48:16;;;;;;;;;;;;;;;23.40;43.05;102200.34;4900714;29;20324;-83
2022/07/02 06:50:42;;;;;;;;;;;;;;;23.40;43.15;102200.34;4878348;29;19963;-81
2022/07/02 06:53:08;;;;;;;;;;;;;;;23.40;42.98;102202.13;4878560;29;19915;-81
2022/07/02 06:55:34;;;;;;;;;;;;;;;23.41;43.10;102204.75;4898970;29;19912;-82
2022/07/02 06:58:21;;;;;;;;;;;;;;;23.42;42.90;102210.84;4864726;29;19937;-80
2022/07/02 07:00:47;;;;;;;;;;;;;;;23.42;42.95;102213.47;5076672;24;19931;-80
2022/07/02 07:03:12;;;;;;;;;;;;;;;23.42;43.38;102219.59;4858790;29;19916;-80
2022/07/02 07:05:39;;;;;;;;;;;;;;;23.46;43.07;102219.56;4855986;29;20028;-80
2022/07/02 07:08:10;;;;;;;;;;;;;;;23.46;43.18;102214.31;4874178;29;19947;-80
2022/07/02 07:23:31;;;;;;;;;;;;;;;24.08;41.54;102217.00;4992732;23;19931;-79
2022/07/02 09:39:03;;;;;;;;;;;;;;;23.79;38.12;102163.94;3900014;27;19949;-83
2022/07/02 09:41:48;;;;;;;;;;;;;;;23.75;38.12;102164.00;4867510;29;19920;-81
2022/07/02 09:44:34;;;;;;;;;;;;;;;23.70;37.81;102166.69;4881697;29;19912;-80
2022/07/02 09:47:00;;;;;;;;;;;;;;;23.68;37.50;102171.09;4860824;29;19940;-79
2022/07/02 09:49:44;;;;;;;;;;;;;;;23.66;37.44;102172.00;4845437;29;19932;-81
2022/07/02 09:52:17;;;;;;;;;;;;;;;23.71;37.50;102173.66;4879252;29;19967;-81
2022/07/02 09:54:45;;;;;;;;;;;;;;;23.74;37.48;102167.53;4879770;29;19912;-81
2022/07/02 09:57:11;;;;;;;;;;;;;;;23.75;37.21;102161.34;4877775;29;19975;-80
2022/07/02 09:59:37;;;;;;;;;;;;;;;23.70;37.11;102163.19;4876613;29;19919;-80
2022/07/02 10:02:02;;;;;;;;;;;;;;;23.66;36.69;102169.38;4868880;29;19920;-80
2022/07/02 10:04:32;;;;;;;;;;;;;;;23.62;36.86;102161.53;4865168;29;19900;-81
2022/07/02 10:07:16;;;;;;;;;;;;;;;23.62;36.74;102164.16;4878045;29;19971;-80
2022/07/02 10:09:42;;;;;;;;;;;;;;;23.61;36.86;102169.44;4874302;29;19912;-80
2022/07/02 10:12:09;;;;;;;;;;;;;;;23.63;36.48;102165.03;4876012;29;19912;-79
2022/07/02 10:14:36;;;;;;;;;;;;;;;23.61;36.41;102166.81;4875941;29;19916;-80
2022/07/02 10:17:02;;;;;;;;;;;;;;;23.60;36.44;102163.34;4875494;29;19912;-79
2022/07/02 10:19:28;;;;;;;;;;;;;;;23.59;36.45;102161.59;4857408;29;19975;-79
2022/07/02 10:21:55;;;;;;;;;;;;;;;23.61;36.86;102153.69;4871191;29;19943;-80
2022/07/02 10:24:22;;;;;;;;;;;;;;;23.59;36.46;102161.59;4855691;29;19923;-80
2022/07/02 10:26:48;;;;;;;;;;;;;;;23.61;36.59;102151.91;4876144;29;19962;-80
2022/07/02 10:29:18;;;;;;;;;;;;;;;23.60;36.72;102159.81;4874175;29;19983;-81
2022/07/02 10:31:53;;;;;;;;;;;;;;;23.61;36.92;102151.06;4852037;29;19979;-81
2022/07/02 10:34:25;;;;;;;;;;;;;;;23.61;36.87;102153.69;4856549;29;19968;-81
2022/07/02 10:36:58;;;;;;;;;;;;;;;23.60;36.94;102158.06;4860343;29;19959;-81
2022/07/02 10:39:24;;;;;;;;;;;;;;;23.62;36.93;102152.78;4859048;29;19921;-80
2022/07/02 10:41:49;;;;;;;;;;;;;;;23.64;36.82;102148.38;4849486;29;19971;-81
2022/07/02 10:44:16;;;;;;;;;;;;;;;23.62;36.67;102143.13;4838323;29;19947;-81
2022/07/02 10:46:46;;;;;;;;;;;;;;;23.62;36.66;102140.50;4837969;29;19944;-80
2022/07/02 10:49:11;;;;;;;;;;;;;;;23.65;36.30;102136.09;4840215;29;20348;-81
2022/07/02 10:51:37;;;;;;;;;;;;;;;23.68;36.55;102138.69;4857197;29;19919;-80
2022/07/02 10:54:04;;;;;;;;;;;;;;;23.67;36.40;102129.06;4856386;29;19917;-80
2022/07/02 10:56:30;;;;;;;;;;;;;;;23.69;36.41;102132.53;4852806;29;20356;-81
2022/07/02 10:58:56;;;;;;;;;;;;;;;23.69;36.52;102130.78;4854180;29;19919;-80
2022/07/02 11:01:22;;;;;;;;;;;;;;;23.69;36.59;102129.91;4856562;29;20343;-80
2022/07/02 11:03:50;;;;;;;;;;;;;;;23.69;36.20;102133.44;4853384;29;19916;-80
2022/07/02 11:06:20;;;;;;;;;;;;;;;23.69;36.36;102132.53;4850470;29;19916;-80
2022/07/02 11:08:49;;;;;;;;;;;;;;;23.71;36.50;102130.75;4838327;29;19981;-80
2022/07/02 11:11:26;;;;;;;;;;;;;;;23.69;36.38;102127.28;4837679;29;19942;-80
2022/07/02 11:13:58;;;;;;;;;;;;;;;23.71;36.67;102130.75;4853202;29;19913;-79
2022/07/02 11:16:23;;;;;;;;;;;;;;;23.72;36.27;102122.00;4853276;29;19916;-79
2022/07/02 11:18:50;;;;;;;;;;;;;;;23.72;36.66;102135.13;4853594;29;20000;-80
2022/07/02 11:21:35;;;;;;;;;;;;;;;23.72;36.39;102132.50;4823917;29;19938;-80
2022/07/02 11:24:00;;;;;;;;;;;;;;;23.73;36.40;102129.84;4860194;29;19897;-80
2022/07/02 11:26:28;;;;;;;;;;;;;;;23.72;36.26;102128.13;4832372;29;19920;-81
2022/07/02 11:28:54;;;;;;;;;;;;;;;23.71;36.18;102122.88;4860464;29;19927;-80
2022/07/02 11:31:21;;;;;;;;;;;;;;;23.70;36.34;102126.41;4855672;29;19912;-79
2022/07/02 11:34:06;;;;;;;;;;;;;;;23.70;36.15;102121.16;4860465;29;19937;-80
2022/07/02 11:36:32;;;;;;;;;;;;;;;23.67;36.50;102119.44;4861285;29;19921;-79
2022/07/02 11:38:58;;;;;;;;;;;;;;;23.68;36.55;102115.91;4849816;29;20020;-79
2022/07/02 11:41:44;;;;;;;;;;;;;;;23.73;36.65;102116.69;4863265;29;19920;-80
2022/07/02 11:44:19;;;;;;;;;;;;;;;23.77;36.64;102114.94;4860330;29;19912;-80
2022/07/02 11:46:55;;;;;;;;;;;;;;;23.74;36.59;102107.94;4861847;29;19923;-82
2022/07/02 11:49:32;;;;;;;;;;;;;;;23.69;36.59;102103.63;4847251;29;19912;-84
2022/07/02 11:52:06;;;;;;;;;;;;;;;23.70;36.58;102105.38;4847138;29;20405;-83
2022/07/02 11:54:50;;;;;;;;;;;;;;;23.85;37.01;102099.91;4847477;29;19938;-81
2022/07/02 11:57:36;;;;;;;;;;;;;;;23.80;35.93;102099.09;4864602;29;19912;-84
2022/07/02 12:00:28;;;;;;;;;;;;;;;23.66;35.97;102096.66;4842546;29;20287;-80
2022/07/02 12:02:54;;;;;;;;;;;;;;;23.64;35.86;102094.94;4860501;29;19913;-80
2022/07/02 12:05:19;;;;;;;;;;;;;;;23.46;39.18;102103.97;4842892;29;19912;-78
2022/07/02 12:07:46;;;;;;;;;;;;;;;23.27;38.21;102101.59;4856974;29;19916;-79
2022/07/02 12:10:12;;;;;;;;;;;;;;;23.10;39.21;102100.94;4841704;29;19959;-77
2022/07/02 12:12:37;;;;;;;;;;;;;;;23.19;44.74;102091.22;4855697;29;19917;-78
2022/07/02 12:15:05;;;;;;;;;;;;;;;22.60;43.10;102100.59;4826306;29;19947;-81
2022/07/02 12:27:54;;;;;;;;;;;;;;;21.94;47.01;102085.47;4866746;27;19924;-77
2022/07/02 12:30:19;;;;;;;;;;;;;;;21.96;46.30;102084.56;4873526;29;19935;-77
2022/07/02 12:32:51;;;;;;;;;;;;;;;22.12;46.34;102084.44;4874454;29;19912;-78
2022/07/02 12:35:16;;;;;;;;;;;;;;;22.25;43.66;102091.34;4874173;29;19919;-78
2022/07/02 12:37:51;;;;;;;;;;;;;;;22.23;45.54;102087.84;4873508;29;19912;-78
2022/07/02 12:40:21;;;;;;;;;;;;;;;22.18;40.11;102090.50;4868906;29;20007;-78
2022/07/02 12:42:59;;;;;;;;;;;;;;;22.25;43.43;102093.97;4865783;29;19951;-78
2022/07/02 12:45:29;;;;;;;;;;;;;;;22.25;45.72;102087.84;4851589;29;19912;-78
2022/07/02 12:47:58;;;;;;;;;;;;;;;22.22;39.39;102078.28;4851997;29;19916;-78
2022/07/02 12:50:24;;;;;;;;;;;;;;;22.25;41.53;102082.59;4868172;29;19919;-78
2022/07/02 12:52:53;;;;;;;;;;;;;;;22.32;39.37;102068.53;4835952;29;19916;-77
2022/07/02 12:55:19;;;;;;;;;;;;;;;22.40;37.34;102071.97;4874099;29;19939;-77
2022/07/02 12:57:45;;;;;;;;;;;;;;;22.39;38.92;102075.50;4871428;29;19912;-78
2022/07/02 13:00:10;;;;;;;;;;;;;;;22.25;46.19;102080.84;4871667;29;19919;-79
2022/07/02 13:02:44;;;;;;;;;;;;;;;22.04;45.77;102074.03;4872439;29;19912;-78
2022/07/02 13:05:09;;;;;;;;;;;;;;;22.26;46.39;102068.63;4872031;29;19912;-78
2022/07/02 13:07:35;;;;;;;;;;;;;;;22.40;43.79;102061.47;4871503;29;20397;-78
2022/07/02 13:10:02;;;;;;;;;;;;;;;22.50;43.18;102064.88;4855350;29;19916;-79
2022/07/02 13:12:30;;;;;;;;;;;;;;;22.55;38.71;102063.94;4871732;29;20355;-78
2022/07/02 13:14:55;;;;;;;;;;;;;;;22.52;38.82;102073.63;4877618;29;19919;-78
2022/07/02 13:17:21;;;;;;;;;;;;;;;22.28;38.22;102067.72;4873244;29;19920;-79
2022/07/02 13:19:47;;;;;;;;;;;;;;;22.22;41.66;102059.91;4858039;29;19916;-78
2022/07/02 13:22:13;;;;;;;;;;;;;;;22.36;38.62;102060.66;4872089;29;19923;-78
2022/07/02 13:24:38;;;;;;;;;;;;;;;22.36;39.13;102060.66;4856967;29;20027;-78
2022/07/02 13:27:05;;;;;;;;;;;;;;;22.28;45.26;102062.47;4856779;29;19924;-78
2022/07/02 13:29:31;;;;;;;;;;;;;;;22.52;41.60;102057.88;4872546;29;19916;-79
2022/07/02 13:31:57;;;;;;;;;;;;;;;22.53;39.54;102049.09;4857118;29;20396;-78
2022/07/02 13:34:23;;;;;;;;;;;;;;;22.38;43.06;102053.66;4872248;29;19916;-79
2022/07/02 13:39:51;;;;;;;;;;;;;;;22.30;43.71;102042.38;4896720;23;19930;-76
2022/07/02 13:42:16;;;;;;;;;;;;;;;22.22;48.36;102046.81;4852639;29;20285;-79
2022/07/02 13:44:42;;;;;;;;;;;;;;;22.14;45.02;102040.72;4853596;29;19915;-77
2022/07/02 13:47:07;;;;;;;;;;;;;;;22.23;44.37;102047.66;4868625;29;19920;-76
2022/07/02 13:49:33;;;;;;;;;;;;;;;22.43;45.07;102039.59;4868275;29;19912;-77
2022/07/02 13:51:58;;;;;;;;;;;;;;;22.32;42.01;102045.84;4885843;29;19911;-78
2022/07/02 13:54:23;;;;;;;;;;;;;;;22.44;39.00;102033.47;4874638;29;19916;-80
2022/07/02 13:56:49;;;;;;;;;;;;;;;22.43;41.98;102034.34;4885017;29;20002;-79
2022/07/02 13:59:15;;;;;;;;;;;;;;;22.51;46.43;102035.13;4898765;29;19916;-78
2022/07/02 14:01:41;;;;;;;;;;;;;;;22.62;39.85;102033.25;4878097;29;19918;-79
2022/07/02 14:04:06;;;;;;;;;;;;;;;22.53;46.71;102039.47;4877670;29;19935;-79
2022/07/02 14:06:32;;;;;;;;;;;;;;;22.53;44.32;102030.75;4892957;29;19922;-78
2022/07/02 14:08:58;;;;;;;;;;;;;;;22.57;42.94;102033.31;4876165;29;19923;-78
2022/07/02 14:11:23;;;;;;;;;;;;;;;22.66;41.76;102021.84;4891758;29;19947;-78
2022/07/02 14:13:49;;;;;;;;;;;;;;;22.68;43.65;102027.94;4890537;29;19912;-78
2022/07/02 14:16:15;;;;;;;;;;;;;;;22.69;37.30;102019.19;4891452;29;19911;-78
2022/07/02 14:18:44;;;;;;;;;;;;;;;22.71;39.46;102030.53;4891348;29;19940;-78
2022/07/02 14:21:09;;;;;;;;;;;;;;;22.43;41.48;102023.84;4894924;29;20014;-77
2022/07/02 14:23:34;;;;;;;;;;;;;;;22.59;43.87;102021.03;4894146;29;20351;-78
2022/07/02 14:26:00;;;;;;;;;;;;;;;22.70;46.34;102028.78;4863477;29;19920;-78
2022/07/02 14:28:29;;;;;;;;;;;;;;;22.78;42.96;102023.47;4895112;29;19953;-78
2022/07/02 14:30:54;;;;;;;;;;;;;;;22.86;45.34;102025.97;4875994;29;19912;-78
2022/07/02 14:33:19;;;;;;;;;;;;;;;22.94;42.16;102019.72;4860933;29;19915;-79
2022/07/02 14:35:45;;;;;;;;;;;;;;;22.87;45.75;102022.47;4874257;29;19920;-78
2022/07/02 14:38:14;;;;;;;;;;;;;;;22.90;44.38;102027.66;4893217;29;19918;-80
2022/07/02 14:40:40;;;;;;;;;;;;;;;22.94;44.34;102014.47;4887922;29;20264;-77
2022/07/02 14:43:05;;;;;;;;;;;;;;;22.83;41.24;102012.91;4855488;29;19922;-77
2022/07/02 14:45:31;;;;;;;;;;;;;;;22.83;45.17;102007.66;4869614;29;19912;-77
2022/07/02 14:47:56;;;;;;;;;;;;;;;23.07;42.95;102009.97;4868443;29;19923;-77
2022/07/02 14:50:22;;;;;;;;;;;;;;;23.15;40.95;101999.38;4872170;29;19919;-78
2022/07/02 14:52:47;;;;;;;;;;;;;;;23.26;40.35;101999.22;4896087;29;19912;-78
2022/07/02 14:55:12;;;;;;;;;;;;;;;23.24;44.19;102001.00;4870679;29;19915;-78
2022/07/02 14:57:38;;;;;;;;;;;;;;;23.27;44.59;101999.16;4890864;29;20290;-78
2022/07/02 15:00:10;;;;;;;;;;;;;;;23.14;42.14;102003.72;4874549;29;19945;-79
2022/07/02 15:02:36;;;;;;;;;;;;;;;23.23;41.01;102004.50;4871178;29;19911;-78
2022/07/02 15:05:04;;;;;;;;;;;;;;;23.24;44.79;102008.88;4868886;29;19962;-79
2022/07/02 15:07:29;;;;;;;;;;;;;;;23.26;43.34;102002.69;4872372;29;20010;-78
2022/07/02 15:10:13;;;;;;;;;;;;;;;23.30;40.82;102001.75;4890442;29;19943;-85
2022/07/02 15:12:42;;;;;;;;;;;;;;;23.29;42.24;101993.91;4899784;29;19896;-84
2022/07/02 15:48:37;;;;;;;;;;;;;;;23.00;50.24;101971.56;4895341;29;19948;-82
2022/07/02 15:51:27;;;;;;;;;;;;;;;22.96;49.81;101975.94;4881731;29;19955;-81
2022/07/02 15:54:11;;;;;;;;;;;;;;;22.94;49.21;101964.59;4884735;29;19919;-81
2022/07/02 16:02:48;;;;;;;;;;;;;;;22.90;49.12;101968.16;4873091;29;19927;-81
2022/07/02 16:08:27;;;;;;;;;;;;;;;22.88;49.51;101959.44;4900445;29;19926;-82
2022/07/02 16:13:44;;;;;;;;;;;;;;;22.88;49.01;101956.81;4510888;23;19923;-81
2022/07/02 16:16:18;;;;;;;;;;;;;;;22.92;48.90;101957.66;4865815;29;19920;-82
2022/07/02 16:18:55;;;;;;;;;;;;;;;22.95;48.88;101957.59;4864927;29;19911;-81
2022/07/02 16:21:29;;;;;;;;;;;;;;;22.97;48.65;101950.56;4890635;29;19949;-82
2022/07/02 16:23:56;;;;;;;;;;;;;;;22.99;49.35;101959.28;4890042;29;20366;-81
2022/07/02 16:26:30;;;;;;;;;;;;;;;23.00;48.44;101953.19;4893668;29;19962;-83
2022/07/02 16:28:57;;;;;;;;;;;;;;;23.02;48.66;101954.03;4898249;29;19978;-81
2022/07/02 16:45:02;;;;;;;;;;;;;;;23.06;48.10;101957.47;5905121;23;19941;-84
2022/07/02 16:47:36;;;;;;;;;;;;;;;23.08;47.66;101956.59;4887104;29;19923;-83
2022/07/02 16:58:43;;;;;;;;;;;;;;;23.07;47.89;101933.81;5603517;23;19924;-83
2022/07/02 17:15:00;;;;;;;;;;;;;;;23.06;47.47;101936.47;4880898;29;19918;-83
2022/07/02 17:20:29;;;;;;;;;;;;;;;23.08;47.85;101935.59;4883720;29;19971;-85
2022/07/02 17:23:17;;;;;;;;;;;;;;;23.10;47.77;101939.03;4869557;29;20016;-84
2022/07/02 17:26:02;;;;;;;;;;;;;;;23.25;47.06;101939.69;4869756;29;19920;-84
2022/07/02 17:29:05;;;;;;;;;;;;;;;;;;;;;
